Time;durP1;ratioP1;P1;durP2;ratioP2;P2;SDS_P1;SDS_P2;PMS_P1;PMS_P2;Temp;Humidity;BMP_temperature;BMP_pressure;BME280_temperature;BME280_humidity;BME280_pressure;Samples;Min_cycle;Max_cycle;Signal;HPM_P1;HPM_P2
2024/01/15 00:00:22;;;;;;;12.00;7.70;;;;;;;1.14;91.26;97907.23;103110;1257;106828;-75
2024/01/15 00:03:10;;;;;;;11.70;7.80;;;;;;;1.12;91.03;97912.92;103126;1257;139218;-75
2024/01/15 00:05:38;;;;;;;12.10;7.40;;;;;;;1.15;90.96;97907.70;103011;1257;105916;-75
2024/01/15 00:08:06;;;;;;;12.90;8.80;;;;;;;1.17;91.07;97904.20;103349;1258;97798;-74
2024/01/15 00:10:33;;;;;;;13.60;9.10;;;;;;;1.24;91.20;97901.60;103022;1260;137345;-76
2024/01/15 00:12:59;;;;;;;18.70;9.70;;;;;;;1.25;90.89;97897.97;102939;1260;107697;-75
2024/01/15 00:15:28;;;;;;;14.00;9.40;;;;;;;1.17;90.87;97879.22;102899;1257;137972;-75
2024/01/15 00:17:55;;;;;;;13.20;9.60;;;;;;;1.17;90.96;97880.58;102977;1257;107487;-75
2024/01/15 00:20:22;;;;;;;13.10;8.90;;;;;;;1.14;91.14;97876.41;102990;1256;97805;-75
2024/01/15 00:22:49;;;;;;;12.40;8.50;;;;;;;1.13;91.19;97875.08;103236;1256;110398;-75
2024/01/15 00:25:16;;;;;;;14.50;8.60;;;;;;;1.09;91.05;97865.13;102954;1258;106631;-76
2024/01/15 00:27:43;;;;;;;11.70;7.90;;;;;;;1.09;91.01;97863.73;102907;1257;138394;-76
2024/01/15 00:30:11;;;;;;;12.40;8.60;;;;;;;1.06;90.97;97857.83;103995;1256;106974;-76
2024/01/15 00:32:38;;;;;;;13.30;8.70;;;;;;;1.04;90.98;97855.67;102968;1256;138102;-74
2024/01/15 00:35:06;;;;;;;13.20;9.50;;;;;;;1.01;90.83;97850.14;103271;1258;110290;-75
2024/01/15 00:37:33;;;;;;;14.80;9.60;;;;;;;1.00;90.91;97847.42;103057;1260;106616;-76
2024/01/15 00:40:00;;;;;;;14.20;9.90;;;;;;;0.99;90.81;97838.89;102897;1257;137499;-76
2024/01/15 00:42:27;;;;;;;17.30;9.60;;;;;;;0.99;90.97;97837.87;103182;1257;107669;-74
2024/01/15 00:44:55;;;;;;;13.50;9.10;;;;;;;0.93;90.86;97838.41;103028;1257;138527;-75
2024/01/15 00:47:22;;;;;;;12.30;8.80;;;;;;;0.91;91.23;97836.94;103448;1258;111412;-75
2024/01/15 00:49:49;;;;;;;12.40;8.80;;;;;;;0.88;91.33;97828.14;103492;1257;107454;-75
2024/01/15 00:52:16;;;;;;;17.50;9.40;;;;;;;0.89;91.45;97828.62;103289;1260;138293;-75
2024/01/15 00:54:43;;;;;;;13.10;8.30;;;;;;;0.93;91.78;97825.77;102911;1257;107491;-75
2024/01/15 00:57:09;;;;;;;12.30;8.80;;;;;;;0.96;91.93;97822.94;103179;1257;138222;-75
2024/01/15 00:59:36;;;;;;;13.30;9.00;;;;;;;0.98;91.97;97821.84;103373;1257;110752;-76
2024/01/15 01:02:03;;;;;;;13.10;9.80;;;;;;;0.97;92.16;97827.17;102937;1256;107625;-75
2024/01/15 01:04:30;;;;;;;12.90;9.50;;;;;;;0.94;92.17;97817.85;102911;1260;137514;-75
2024/01/15 01:06:57;;;;;;;14.30;11.00;;;;;;;0.91;92.23;97808.38;102923;1258;107204;-75
2024/01/15 01:09:24;;;;;;;15.80;9.80;;;;;;;0.88;92.53;97807.09;102853;1257;137865;-75
2024/01/15 01:11:51;;;;;;;12.00;8.80;;;;;;;0.84;92.52;97803.79;102998;1256;110593;-75
2024/01/15 01:14:20;;;;;;;13.40;9.10;;;;;;;0.82;92.81;97803.54;102994;1256;106670;-75
2024/01/15 01:16:47;;;;;;;11.80;9.20;;;;;;;0.84;92.90;97796.61;102985;1257;97685;-74
2024/01/15 01:19:14;;;;;;;13.90;8.90;;;;;;;0.86;92.94;97800.14;102963;1257;107684;-76
2024/01/15 01:21:41;;;;;;;13.50;8.50;;;;;;;0.89;93.20;97795.60;102853;1260;138456;-76
2024/01/15 01:24:08;;;;;;;12.40;9.50;;;;;;;0.91;93.31;97793.50;102974;1257;111320;-76
2024/01/15 01:26:35;;;;;;;15.60;10.80;;;;;;;0.95;93.38;97794.55;102843;1258;136981;-74
2024/01/15 01:29:02;;;;;;;13.30;10.20;;;;;;;0.99;93.30;97793.57;103038;1258;97795;-75
2024/01/15 01:31:29;;;;;;;13.70;10.20;;;;;;;1.02;93.42;97789.02;103017;1257;106653;-75
2024/01/15 01:33:56;;;;;;;16.00;10.40;;;;;;;1.00;93.17;97792.17;102207;1260;1002782;-75
2024/01/15 01:36:23;;;;;;;14.90;9.50;;;;;;;0.98;93.06;97785.20;102970;1256;111581;-76
2024/01/15 01:38:50;;;;;;;14.90;9.70;;;;;;;0.95;93.04;97782.91;102908;1257;138347;-75
2024/01/15 01:41:17;;;;;;;12.20;9.20;;;;;;;0.94;93.00;97782.77;102977;1259;97714;-75
2024/01/15 01:43:44;;;;;;;13.70;9.50;;;;;;;0.95;93.02;97775.41;102926;1258;106869;-75
2024/01/15 01:46:11;;;;;;;12.20;9.10;;;;;;;0.96;93.03;97776.05;102852;1260;139160;-74
2024/01/15 01:48:39;;;;;;;13.20;9.40;;;;;;;0.98;93.12;97764.68;102964;1259;110892;-75
2024/01/15 01:51:06;;;;;;;14.50;10.00;;;;;;;1.00;92.93;97754.85;102812;1257;138289;-75
2024/01/15 01:53:36;;;;;;;15.40;10.60;;;;;;;1.02;92.92;97747.94;102976;1257;97913;-74
2024/01/15 01:56:03;;;;;;;15.30;10.90;;;;;;;1.04;92.96;97753.35;102983;1257;107142;-74
2024/01/15 01:58:31;;;;;;;15.50;11.60;;;;;;;1.02;92.78;97756.30;102093;1257;1002874;-76
2024/01/15 02:01:00;;;;;;;15.90;11.90;;;;;;;0.95;92.58;97755.39;102943;1263;111213;-75
2024/01/15 02:03:27;;;;;;;17.50;11.80;;;;;;;0.90;92.59;97744.59;103142;1258;139136;-75
2024/01/15 02:05:54;;;;;;;14.50;10.30;;;;;;;0.93;92.84;97747.73;102966;1257;97907;-75
2024/01/15 02:08:22;;;;;;;16.20;10.30;;;;;;;0.95;92.68;97747.16;102920;1260;107313;-76
2024/01/15 02:10:49;;;;;;;15.80;10.30;;;;;;;0.98;92.77;97742.98;102825;1257;139179;-75
2024/01/15 02:13:16;;;;;;;14.30;9.70;;;;;;;0.99;92.51;97744.46;102906;1257;110384;-76
2024/01/15 02:15:43;;;;;;;15.90;10.40;;;;;;;1.01;92.35;97734.98;102798;1259;138270;-75
2024/01/15 02:18:10;;;;;;;16.60;10.80;;;;;;;1.03;92.31;97731.14;102954;1258;98172;-74
2024/01/15 02:20:37;;;;;;;16.60;12.50;;;;;;;1.05;92.39;97730.04;102848;1258;137785;-75
2024/01/15 02:23:11;;;;;;;16.10;12.00;;;;;;;1.07;92.20;97724.83;102824;1260;118571;-74
2024/01/15 02:25:38;;;;;;;15.10;10.90;;;;;;;1.02;91.80;97722.95;102890;1263;111317;-75
2024/01/15 02:28:07;;;;;;;15.60;11.10;;;;;;;0.99;91.79;97712.98;102776;1258;139038;-75
2024/01/15 02:30:35;;;;;;;14.70;10.40;;;;;;;0.99;92.08;97713.30;102967;1257;97783;-75
2024/01/15 02:33:02;;;;;;;15.00;10.70;;;;;;;0.99;91.88;97711.27;102820;1257;139392;-75
2024/01/15 02:35:29;;;;;;;16.20;11.00;;;;;;;0.96;91.72;97707.27;102935;1260;97793;-74
2024/01/15 02:37:56;;;;;;;13.70;10.40;;;;;;;0.97;91.96;97700.73;103006;1256;110799;-74
2024/01/15 02:40:23;;;;;;;15.50;11.20;;;;;;;1.03;91.86;97698.80;102880;1256;139708;-76
2024/01/15 02:42:49;;;;;;;17.50;11.70;;;;;;;1.07;91.92;97698.67;102238;1257;1002603;-76
2024/01/15 02:45:16;;;;;;;15.40;11.00;;;;;;;1.09;91.73;97694.30;102905;1258;138043;-75
2024/01/15 02:47:43;;;;;;;16.70;13.00;;;;;;;1.03;91.37;97693.83;102957;1257;97910;-76
2024/01/15 02:50:11;;;;;;;18.80;12.70;;;;;;;0.98;91.19;97686.81;102972;1260;111005;-75
2024/01/15 02:52:38;;;;;;;15.20;11.40;;;;;;;0.91;91.31;97686.06;102831;1257;137712;-74
2024/01/15 02:55:06;;;;;;;15.20;11.10;;;;;;;0.82;91.37;97681.21;102968;1259;97672;-74
2024/01/15 02:57:32;;;;;;;16.50;10.80;;;;;;;0.74;91.49;97674.33;102792;1258;138224;-75
2024/01/15 02:59:59;;;;;;;16.10;11.30;;;;;;;0.76;91.77;97664.69;102977;1260;97846;-74
2024/01/15 03:02:26;;;;;;;14.30;10.90;;;;;;;0.77;92.06;97665.34;102917;1260;110939;-75
2024/01/15 03:04:53;;;;;;;15.80;11.10;;;;;;;0.75;91.95;97655.83;102897;1256;138377;-75
2024/01/15 03:07:20;;;;;;;18.00;12.10;;;;;;;0.75;91.95;97654.45;103064;1260;98286;-75
2024/01/15 03:09:47;;;;;;;17.10;12.50;;;;;;;0.73;92.06;97646.32;102907;1257;137958;-74
2024/01/15 03:12:14;;;;;;;18.00;12.50;;;;;;;0.71;92.03;97645.35;103053;1257;97814;-75
2024/01/15 03:14:41;;;;;;;18.30;11.90;;;;;;;0.64;92.30;97634.48;102968;1260;137884;-74
2024/01/15 03:17:09;;;;;;;16.60;10.90;;;;;;;0.59;92.69;97636.01;102918;1258;107072;-74
2024/01/15 03:19:38;;;;;;;16.70;11.10;;;;;;;0.51;92.96;97620.19;102946;1259;97830;-74
2024/01/15 03:22:08;;;;;;;15.60;11.00;;;;;;;0.58;93.47;97636.91;102924;1256;138130;-74
2024/01/15 03:24:35;;;;;;;16.20;10.70;;;;;;;0.57;93.68;97637.45;102984;1259;97715;-74
2024/01/15 03:27:02;;;;;;;15.10;11.00;;;;;;;0.54;93.84;97631.37;102926;1258;138375;-74
2024/01/15 03:29:29;;;;;;;17.10;11.90;;;;;;;0.58;93.94;97625.26;102954;1257;107151;-75
2024/01/15 03:31:56;;;;;;;17.70;12.00;;;;;;;0.60;93.99;97622.11;102904;1259;99194;-74
2024/01/15 03:34:23;;;;;;;17.40;12.70;;;;;;;0.58;94.07;97619.61;102866;1257;137617;-74
2024/01/15 03:36:50;;;;;;;19.00;13.30;;;;;;;0.55;93.93;97616.48;102979;1258;97720;-76
2024/01/15 03:39:17;;;;;;;16.50;11.90;;;;;;;0.50;94.14;97611.67;102886;1260;137506;-75
2024/01/15 03:41:44;;;;;;;15.80;11.40;;;;;;;0.47;94.06;97613.14;103008;1260;107422;-76
2024/01/15 03:44:11;;;;;;;15.50;11.20;;;;;;;0.51;94.21;97606.84;103255;1257;97787;-76
2024/01/15 03:46:38;;;;;;;14.40;10.80;;;;;;;0.58;94.18;97609.02;103054;1256;138474;-75
2024/01/15 03:49:05;;;;;;;18.10;11.60;;;;;;;0.65;93.78;97602.13;101532;1257;1003647;-75
2024/01/15 03:51:32;;;;;;;16.00;12.20;;;;;;;0.62;93.48;97596.56;103049;1259;137882;-75
2024/01/15 03:53:59;;;;;;;17.50;12.30;;;;;;;0.63;93.49;97599.13;103203;1258;107161;-76
2024/01/15 03:56:25;;;;;;;17.80;12.50;;;;;;;0.60;93.29;97599.90;103028;1257;97874;-74
2024/01/15 03:58:52;;;;;;;16.90;11.90;;;;;;;0.53;93.31;97594.65;103371;1257;137586;-76
2024/01/15 04:01:19;;;;;;;16.80;11.30;;;;;;;0.50;93.56;97590.48;103191;1257;98087;-75
2024/01/15 04:03:46;;;;;;;15.50;10.80;;;;;;;0.47;93.60;97582.71;103140;1258;138964;-75
2024/01/15 04:06:13;;;;;;;16.10;10.90;;;;;;;0.45;93.66;97580.22;103018;1257;107552;-76
2024/01/15 04:08:40;;;;;;;14.40;10.60;;;;;;;0.43;93.94;97578.76;102932;1257;139040;-75
2024/01/15 04:11:07;;;;;;;14.80;11.00;;;;;;;0.43;93.82;97574.30;103033;1258;107679;-74
2024/01/15 04:13:36;;;;;;;15.80;11.10;;;;;;;0.46;93.73;97565.98;103022;1258;97940;-76
2024/01/15 04:16:06;;;;;;;16.70;11.60;;;;;;;0.48;93.73;97565.95;102964;1260;137913;-75
2024/01/15 04:18:33;;;;;;;16.70;11.60;;;;;;;0.43;93.76;97554.98;103145;1264;106921;-74
2024/01/15 04:21:00;;;;;;;18.10;11.10;;;;;;;0.40;93.71;97551.51;103014;1257;138215;-74
2024/01/15 04:23:27;;;;;;;14.80;10.30;;;;;;;0.39;93.53;97546.28;103449;1257;108190;-75
2024/01/15 04:25:54;;;;;;;14.10;9.90;;;;;;;0.38;93.52;97537.73;102952;1259;97826;-75
2024/01/15 04:28:21;;;;;;;12.90;9.50;;;;;;;0.40;93.50;97530.00;102880;1258;138090;-75
2024/01/15 04:30:47;;;;;;;13.00;9.50;;;;;;;0.46;93.70;97524.46;102880;1261;107658;-75
2024/01/15 04:33:14;;;;;;;13.30;9.80;;;;;;;0.53;93.45;97524.55;102880;1257;138289;-75
2024/01/15 04:35:41;;;;;;;15.20;10.40;;;;;;;0.56;93.20;97515.55;103321;1259;107814;-76
2024/01/15 04:38:08;;;;;;;15.80;11.00;;;;;;;0.58;92.92;97518.73;103185;1259;97804;-76
2024/01/15 04:40:35;;;;;;;14.90;10.30;;;;;;;0.59;92.72;97513.08;103453;1257;137499;-75
2024/01/15 04:43:02;;;;;;;15.20;9.80;;;;;;;0.58;92.63;97509.19;103145;1260;106716;-75
2024/01/15 04:45:30;;;;;;;13.70;9.70;;;;;;;0.58;92.56;97509.34;102913;1258;139320;-75
2024/01/15 04:47:57;;;;;;;14.20;9.80;;;;;;;0.63;92.46;97510.04;102928;1258;107208;-74
2024/01/15 04:50:25;;;;;;;12.60;9.00;;;;;;;0.67;92.44;97509.36;102966;1261;97868;-75
2024/01/15 04:52:52;;;;;;;13.20;9.50;;;;;;;0.73;92.43;97504.86;102860;1258;138036;-75
2024/01/15 04:55:19;;;;;;;16.10;10.10;;;;;;;0.82;92.39;97509.00;103037;1261;107402;-75
2024/01/15 04:57:45;;;;;;;16.10;10.20;;;;;;;0.86;91.94;97513.25;103227;1259;137595;-75
2024/01/15 05:00:14;;;;;;;14.00;10.50;;;;;;;0.85;91.42;97502.67;102945;1259;107037;-75
2024/01/15 05:02:41;;;;;;;15.50;11.00;;;;;;;0.82;91.44;97501.44;102755;1258;138222;-74
2024/01/15 05:05:08;;;;;;;16.80;10.50;;;;;;;0.81;91.37;97503.87;102990;1257;110720;-75
2024/01/15 05:07:35;;;;;;;15.60;10.30;;;;;;;0.80;91.35;97503.92;102967;1259;108050;-75
2024/01/15 05:10:02;;;;;;;13.40;9.20;;;;;;;0.77;91.30;97492.39;102853;1258;138506;-75
2024/01/15 05:12:29;;;;;;;11.60;8.80;;;;;;;0.79;91.26;97498.65;102986;1261;107085;-75
2024/01/15 05:14:56;;;;;;;13.50;9.20;;;;;;;0.81;91.25;97495.33;102858;1257;138771;-76
2024/01/15 05:17:23;;;;;;;13.20;9.60;;;;;;;0.83;91.25;97492.67;103001;1261;110392;-74
2024/01/15 05:19:49;;;;;;;16.20;10.20;;;;;;;0.86;91.25;97486.23;102933;1259;107716;-75
2024/01/15 05:22:16;;;;;;;14.30;10.80;;;;;;;0.88;91.06;97489.73;102991;1256;137646;-75
2024/01/15 05:24:43;;;;;;;15.10;10.50;;;;;;;0.90;90.94;97488.17;102906;1258;108509;-74
2024/01/15 05:27:10;;;;;;;18.50;11.20;;;;;;;0.87;90.89;97489.46;102829;1257;137984;-74
2024/01/15 05:29:37;;;;;;;16.50;10.80;;;;;;;0.82;90.72;97482.64;103198;1258;112214;-75
2024/01/15 05:32:05;;;;;;;14.70;10.20;;;;;;;0.81;90.87;97483.55;102972;1257;107401;-75
2024/01/15 05:34:32;;;;;;;12.50;9.60;;;;;;;0.80;90.78;97482.02;102131;1257;1002807;-74
2024/01/15 05:37:00;;;;;;;12.30;9.50;;;;;;;0.79;90.87;97482.41;103227;1256;106935;-75
2024/01/15 05:39:26;;;;;;;13.20;9.60;;;;;;;0.82;90.87;97485.38;102713;1258;1002935;-75
2024/01/15 05:41:53;;;;;;;14.60;9.70;;;;;;;0.87;90.86;97481.25;102247;1257;1003542;-74
2024/01/15 05:44:20;;;;;;;15.70;10.20;;;;;;;0.88;90.54;97483.40;103245;1256;107337;-75
2024/01/15 05:46:47;;;;;;;16.70;11.60;;;;;;;0.90;90.56;97481.84;102961;1258;137444;-74
2024/01/15 05:49:14;;;;;;;13.90;10.50;;;;;;;0.89;90.34;97489.04;102993;1259;108014;-74
2024/01/15 05:51:41;;;;;;;14.90;10.50;;;;;;;0.84;90.13;97484.42;103002;1258;138487;-74
2024/01/15 05:54:08;;;;;;;17.80;10.30;;;;;;;0.82;90.34;97474.42;102947;1256;110686;-74
2024/01/15 05:56:35;;;;;;;13.10;9.30;;;;;;;0.81;90.46;97477.70;102835;1260;138542;-71
2024/01/15 05:59:02;;;;;;;16.00;9.40;;;;;;;0.82;90.59;97475.47;103046;1258;98345;-75
2024/01/15 06:01:29;;;;;;;12.20;8.90;;;;;;;0.80;90.78;97464.05;103064;1259;107622;-75
2024/01/15 06:03:56;;;;;;;14.50;9.70;;;;;;;0.82;90.44;97471.34;102930;1259;137878;-74
2024/01/15 06:06:23;;;;;;;16.60;10.40;;;;;;;0.82;90.57;97459.55;102968;1259;111522;-74
2024/01/15 06:08:50;;;;;;;13.80;10.10;;;;;;;0.83;90.53;97455.92;102873;1258;137706;-74
2024/01/15 06:11:17;;;;;;;13.40;10.20;;;;;;;0.83;90.55;97460.36;103071;1259;97859;-75
2024/01/15 06:13:44;;;;;;;14.80;10.10;;;;;;;0.76;90.36;97458.23;103014;1259;107606;-74
2024/01/15 06:16:16;;;;;;;15.00;9.90;;;;;;;0.74;90.37;97453.52;102083;1260;1003477;-75
2024/01/15 06:18:44;;;;;;;13.40;8.90;;;;;;;0.75;90.50;97448.73;102978;1256;110477;-75
2024/01/15 06:21:12;;;;;;;12.80;9.60;;;;;;;0.73;90.37;97448.26;102822;1257;138396;-74
2024/01/15 06:23:40;;;;;;;12.40;9.10;;;;;;;0.73;90.42;97447.26;103001;1261;97802;-75
2024/01/15 06:26:07;;;;;;;14.70;10.20;;;;;;;0.76;90.41;97457.06;102910;1263;106873;-75
2024/01/15 06:28:34;;;;;;;14.10;10.40;;;;;;;0.73;90.47;97444.00;102895;1261;138035;-75
2024/01/15 06:31:01;;;;;;;17.10;11.10;;;;;;;0.77;90.46;97454.98;102969;1258;109942;-75
2024/01/15 06:33:27;;;;;;;16.20;11.70;;;;;;;0.75;90.65;97446.66;102834;1261;138052;-75
2024/01/15 06:35:54;;;;;;;15.40;10.30;;;;;;;0.70;90.68;97442.20;103058;1260;98348;-75
2024/01/15 06:38:21;;;;;;;16.40;10.20;;;;;;;0.65;90.68;97438.81;102988;1257;106460;-76
2024/01/15 06:40:48;;;;;;;14.80;10.10;;;;;;;0.60;90.63;97430.09;102836;1259;138436;-74
2024/01/15 06:43:19;;;;;;;14.00;9.70;;;;;;;0.62;90.88;97432.96;102958;1259;111303;-74
2024/01/15 06:45:46;;;;;;;15.30;9.70;;;;;;;0.60;90.81;97428.72;102857;1258;138898;-74
2024/01/15 06:48:14;;;;;;;14.50;10.40;;;;;;;0.62;90.73;97426.42;102951;1260;98327;-75
2024/01/15 06:50:41;;;;;;;13.60;10.20;;;;;;;0.67;90.74;97428.29;102857;1259;137694;-74
2024/01/15 06:53:07;;;;;;;15.20;10.80;;;;;;;0.73;90.53;97430.31;103003;1260;97798;-75
2024/01/15 06:55:35;;;;;;;16.20;11.00;;;;;;;0.78;90.11;97438.48;103008;1259;111943;-75
2024/01/15 06:58:01;;;;;;;15.40;11.50;;;;;;;0.78;89.96;97439.52;102832;1258;137663;-74
2024/01/15 07:00:28;;;;;;;15.70;11.50;;;;;;;0.73;89.79;97438.18;102250;1261;1002579;-75
2024/01/15 07:02:55;;;;;;;16.80;10.90;;;;;;;0.71;89.81;97437.05;102609;1259;139464;-76
2024/01/15 07:05:22;;;;;;;14.00;9.90;;;;;;;0.70;89.98;97442.03;102955;1259;98398;-76
2024/01/15 07:07:49;;;;;;;13.30;10.10;;;;;;;0.71;89.94;97444.73;102961;1259;111323;-76
2024/01/15 07:10:16;;;;;;;13.80;9.90;;;;;;;0.71;89.74;97430.69;102774;1258;138359;-75
2024/01/15 07:12:44;;;;;;;14.90;10.70;;;;;;;0.76;89.97;97438.91;102948;1258;99538;-75
2024/01/15 07:15:12;;;;;;;15.70;10.90;;;;;;;0.81;89.91;97438.70;102870;1256;138808;-74
2024/01/15 07:17:40;;;;;;;15.00;11.30;;;;;;;0.82;89.72;97431.66;102834;1259;97891;-74
2024/01/15 07:20:09;;;;;;;14.40;11.30;;;;;;;0.83;89.80;97433.48;102964;1259;110858;-75
2024/01/15 07:22:37;;;;;;;14.20;10.90;;;;;;;0.80;89.95;97436.71;103196;1260;139350;-75
2024/01/15 07:25:04;;;;;;;14.90;11.20;;;;;;;0.75;90.01;97434.52;102969;1259;98471;-75
2024/01/15 07:27:31;;;;;;;15.20;10.20;;;;;;;0.74;90.38;97445.17;102793;1262;138263;-74
2024/01/15 07:29:59;;;;;;;16.80;10.70;;;;;;;0.72;90.69;97440.77;102923;1259;97800;-74
2024/01/15 07:32:29;;;;;;;14.30;10.40;;;;;;;0.70;90.80;97441.88;103027;1259;110771;-75
2024/01/15 07:34:56;;;;;;;15.70;10.80;;;;;;;0.71;90.86;97437.57;102910;1259;105798;-74
2024/01/15 07:37:24;;;;;;;15.70;11.80;;;;;;;0.69;90.88;97439.19;102959;1257;97812;-74
2024/01/15 07:39:51;;;;;;;16.90;12.10;;;;;;;0.67;90.78;97440.45;103013;1259;137897;-74
2024/01/15 07:42:18;;;;;;;15.90;11.60;;;;;;;0.68;90.93;97445.89;102966;1259;97787;-75
2024/01/15 07:44:45;;;;;;;14.60;10.90;;;;;;;0.62;90.90;97454.84;102845;1257;138411;-74
2024/01/15 07:47:12;;;;;;;15.60;10.30;;;;;;;0.58;90.85;97442.48;102911;1256;107096;-75
2024/01/15 07:49:39;;;;;;;12.90;9.80;;;;;;;0.57;90.93;97447.32;102926;1259;98340;-74
2024/01/15 07:52:06;;;;;;;13.70;9.10;;;;;;;0.55;90.85;97455.42;102851;1257;138011;-74
2024/01/15 07:54:33;;;;;;;12.30;8.70;;;;;;;0.59;90.84;97447.08;103056;1256;97807;-75
2024/01/15 07:57:03;;;;;;;12.80;9.60;;;;;;;0.67;90.98;97446.58;102847;1261;137917;-74
2024/01/15 07:59:30;;;;;;;13.90;9.80;;;;;;;0.73;90.99;97456.30;102883;1258;107757;-76
2024/01/15 08:01:57;;;;;;;13.80;9.60;;;;;;;0.74;91.05;97455.06;102895;1259;97680;-75
2024/01/15 08:04:24;;;;;;;16.40;11.10;;;;;;;0.72;91.27;97456.67;102797;1261;139276;-73
2024/01/15 08:06:51;;;;;;;14.50;9.80;;;;;;;0.67;91.33;97458.40;102983;1261;97856;-74
2024/01/15 08:09:17;;;;;;;14.90;10.30;;;;;;;0.63;91.69;97458.88;102790;1256;138297;-72
2024/01/15 08:11:45;;;;;;;12.10;9.20;;;;;;;0.61;91.91;97463.92;102857;1258;106931;-75
2024/01/15 08:14:13;;;;;;;16.60;8.80;;;;;;;0.60;92.22;97453.02;102949;1257;97863;-74
2024/01/15 08:16:40;;;;;;;12.80;9.10;;;;;;;0.59;91.90;97442.98;102737;1258;138023;-76
2024/01/15 08:19:08;;;;;;;13.70;9.30;;;;;;;0.62;91.73;97447.84;102775;1261;97832;-75
2024/01/15 08:21:35;;;;;;;13.70;9.10;;;;;;;0.69;91.62;97456.45;102711;1259;137698;-75
2024/01/15 08:24:03;;;;;;;12.70;9.40;;;;;;;0.75;91.60;97455.90;102852;1261;108874;-77
2024/01/15 08:26:32;;;;;;;12.50;9.40;;;;;;;0.83;91.19;97452.17;102769;1257;138453;-77
2024/01/15 08:28:59;;;;;;;14.00;9.80;;;;;;;0.93;90.79;97451.27;103253;1259;107287;-71
2024/01/15 08:31:26;;;;;;;12.70;9.80;;;;;;;1.01;90.35;97453.71;102901;1261;137647;-75
2024/01/15 08:33:53;;;;;;;12.40;9.00;;;;;;;1.09;90.15;97449.45;102982;1261;110836;-74
2024/01/15 08:36:20;;;;;;;10.50;8.30;;;;;;;1.26;89.90;97455.61;102739;1259;138334;-74
2024/01/15 08:38:47;;;;;;;9.90;7.80;;;;;;;1.52;89.47;97454.91;102873;1257;98073;-74
2024/01/15 08:41:14;;;;;;;10.00;7.90;;;;;;;1.82;88.91;97447.67;102949;1259;107327;-74
2024/01/15 08:43:41;;;;;;;10.30;8.00;;;;;;;2.03;87.91;97450.92;102941;1259;138106;-74
2024/01/15 08:46:08;;;;;;;10.00;8.00;;;;;;;2.12;87.07;97450.84;103004;1258;109532;-77
2024/01/15 08:48:35;;;;;;;10.90;8.30;;;;;;;2.09;86.54;97450.98;102776;1261;137650;-75
2024/01/15 08:51:02;;;;;;;10.70;8.70;;;;;;;1.98;86.54;97454.08;102899;1261;97941;-75
2024/01/15 08:53:29;;;;;;;10.90;8.30;;;;;;;1.89;86.57;97457.33;102991;1259;107199;-75
2024/01/15 08:55:56;;;;;;;11.90;9.30;;;;;;;1.77;86.76;97456.45;102117;1273;1002976;-69
2024/01/15 08:58:24;;;;;;;10.00;8.10;;;;;;;1.67;87.10;97458.59;103059;1257;109884;-75
2024/01/15 09:00:51;;;;;;;11.70;8.40;;;;;;;1.59;87.40;97461.80;103564;1257;139927;-76
2024/01/15 09:03:18;;;;;;;12.40;8.10;;;;;;;1.55;87.51;97462.86;103189;1259;97824;-75
2024/01/15 09:05:45;;;;;;;11.60;7.90;;;;;;;1.48;87.33;97468.80;102891;1256;108815;-76
2024/01/15 09:08:12;;;;;;;10.60;7.70;;;;;;;1.43;87.87;97470.52;102753;1258;139022;-74
2024/01/15 09:10:40;;;;;;;9.60;8.00;;;;;;;1.49;87.95;97469.26;102904;1258;109919;-76
2024/01/15 09:13:08;;;;;;;9.60;7.30;;;;;;;1.61;87.53;97474.44;103609;1257;138076;-75
2024/01/15 09:15:34;;;;;;;10.40;7.70;;;;;;;1.72;87.13;97476.17;104373;1257;97652;-75
2024/01/15 09:18:02;;;;;;;11.90;8.10;;;;;;;1.99;86.56;97463.61;103658;1259;106843;-75
2024/01/15 09:20:33;;;;;;;11.00;8.40;;;;;;;2.39;86.03;97463.95;102327;1259;1002923;-77
2024/01/15 09:23:00;;;;;;;12.00;7.90;;;;;;;2.70;85.65;97459.66;102976;1257;111084;-75
2024/01/15 09:25:27;;;;;;;12.30;7.90;;;;;;;2.90;84.83;97454.95;102836;1260;137469;-75
2024/01/15 09:27:54;;;;;;;11.90;7.90;;;;;;;3.08;84.05;97456.35;103145;1257;97723;-76
2024/01/15 09:30:22;;;;;;;10.90;8.20;;;;;;;3.05;82.84;97461.63;102862;1261;137802;-74
2024/01/15 09:32:49;;;;;;;10.80;7.80;;;;;;;2.96;82.26;97454.01;103002;1259;97850;-75
2024/01/15 09:35:16;;;;;;;11.30;7.50;;;;;;;2.83;82.07;97442.75;102951;1261;112374;-77
2024/01/15 09:37:43;;;;;;;10.30;6.60;;;;;;;2.70;81.96;97449.70;102715;1262;139060;-74
2024/01/15 09:40:17;;;;;;;10.80;6.70;;;;;;;2.68;81.98;97449.43;102926;1257;97813;-75
2024/01/15 09:42:45;;;;;;;9.20;6.50;;;;;;;2.85;82.44;97452.92;102747;1260;138208;-75
2024/01/15 09:45:14;;;;;;;8.90;6.10;;;;;;;3.03;81.20;97452.09;102986;1259;97719;-75
2024/01/15 09:47:43;;;;;;;10.70;6.40;;;;;;;3.06;80.56;97459.73;102956;1259;112768;-76
2024/01/15 09:50:13;;;;;;;10.60;6.50;;;;;;;2.97;79.96;97454.25;102771;1261;139506;-76
2024/01/15 09:52:44;;;;;;;9.30;6.00;;;;;;;2.93;79.84;97451.01;102914;1257;97850;-76
2024/01/15 09:55:12;;;;;;;9.30;6.90;;;;;;;2.88;79.92;97450.23;102756;1259;139256;-75
2024/01/15 09:57:40;;;;;;;12.50;7.20;;;;;;;2.82;79.33;97451.73;102936;1257;97805;-76
2024/01/15 10:00:11;;;;;;;10.20;6.10;;;;;;;2.70;79.07;97444.04;103117;1257;110425;-72
2024/01/15 10:02:39;;;;;;;10.70;6.10;;;;;;;2.55;78.60;97437.66;102915;1257;108411;-79
2024/01/15 10:05:08;;;;;;;9.90;6.20;;;;;;;2.49;78.93;97439.31;103011;1261;98326;-78
2024/01/15 10:07:38;;;;;;;8.90;5.90;;;;;;;2.55;79.57;97440.25;102840;1259;137704;-78
2024/01/15 10:10:07;;;;;;;9.20;5.70;;;;;;;2.62;79.19;97437.54;102836;1257;97772;-79
2024/01/15 10:12:35;;;;;;;9.60;6.00;;;;;;;2.61;78.54;97432.29;102659;1261;137293;-78
2024/01/15 10:15:02;;;;;;;9.40;5.20;;;;;;;2.54;78.15;97428.32;102837;1263;108507;-78
2024/01/15 10:17:30;;;;;;;9.90;5.40;;;;;;;2.48;77.60;97429.77;102876;1258;97686;-76
2024/01/15 10:19:58;;;;;;;9.70;5.50;;;;;;;2.40;77.56;97436.61;102694;1259;137833;-73
2024/01/15 10:22:25;;;;;;;8.90;5.50;;;;;;;2.35;77.54;97438.03;102909;1259;97827;-73
2024/01/15 10:24:52;;;;;;;10.60;6.40;;;;;;;2.33;77.80;97437.44;102775;1260;138380;-76
2024/01/15 10:27:19;;;;;;;11.90;6.00;;;;;;;2.31;77.52;97439.91;102790;1259;109694;-79
2024/01/15 10:29:46;;;;;;;7.90;5.90;;;;;;;2.23;78.21;97440.79;102841;1259;98359;-79
2024/01/15 10:32:13;;;;;;;11.20;6.30;;;;;;;2.15;78.22;97442.35;102697;1259;137076;-77
2024/01/15 10:34:43;;;;;;;10.80;7.00;;;;;;;2.09;78.49;97444.84;102912;1258;97823;-78
2024/01/15 10:37:11;;;;;;;13.50;7.20;;;;;;;2.01;78.64;97436.77;102680;1262;136269;-79
2024/01/15 10:39:39;;;;;;;11.20;7.30;;;;;;;1.99;78.93;97435.02;102853;1256;107311;-78
2024/01/15 10:42:08;;;;;;;12.60;7.10;;;;;;;1.98;78.52;97432.66;102904;1257;98418;-77
2024/01/15 10:44:36;;;;;;;9.80;6.80;;;;;;;1.99;78.85;97437.23;102752;1262;138044;-74
2024/01/15 10:47:03;;;;;;;10.80;6.50;;;;;;;2.02;79.19;97437.23;102860;1271;97815;-78
2024/01/15 10:49:30;;;;;;;10.40;6.20;;;;;;;2.11;79.03;97446.98;102779;1260;139429;-75
2024/01/15 10:52:01;;;;;;;11.40;7.00;;;;;;;2.17;78.62;97438.86;104212;1261;106641;-75
2024/01/15 10:54:30;;;;;;;11.30;6.90;;;;;;;2.20;78.78;97439.08;104195;1259;138288;-76
2024/01/15 10:56:58;;;;;;;10.10;7.10;;;;;;;2.18;78.59;97441.73;104320;1260;108619;-78
2024/01/15 10:59:25;;;;;;;13.20;7.80;;;;;;;2.13;78.54;97437.77;104277;1261;95756;-75
2024/01/15 11:01:53;;;;;;;11.30;7.40;;;;;;;2.12;79.00;97443.81;104161;1257;138094;-73
2024/01/15 11:04:23;;;;;;;12.40;7.50;;;;;;;2.10;78.90;97442.53;104259;1257;107367;-74
2024/01/15 11:06:54;;;;;;;11.60;7.20;;;;;;;2.07;79.19;97438.05;104191;1257;138883;-74
2024/01/15 11:09:22;;;;;;;11.10;6.90;;;;;;;2.05;79.23;97432.84;104280;1261;106951;-74
2024/01/15 11:11:52;;;;;;;10.00;6.60;;;;;;;2.09;79.27;97437.46;104366;1256;95850;-74
2024/01/15 11:14:39;;;;;;;10.50;6.50;;;;;;;2.12;79.37;97430.10;104215;1257;139138;-74
2024/01/15 11:17:05;;;;;;;;;;;;;;;2.14;78.85;97430.89;104371;1261;107014;-75